Time;durP1;ratioP1;P1;durP2;ratioP2;P2;SDS_P1;SDS_P2;PMS_P1;PMS_P2;Temp;Humidity;BMP_temperature;BMP_pressure;BME280_temperature;BME280_humidity;BME280_pressure;Samples;Min_cycle;Max_cycle;Signal;HPM_P1;HPM_P2
2021/12/05 00:22:53;;;;;;;3.27;1.90;;;6.40;90.30;;;6.81;61.76;97443.19;4881395;28;114444;-87
2021/12/05 00:25:29;;;;;;;5.80;1.90;;;6.30;90.30;;;6.80;62.29;97442.38;4863437;28;122367;-87
2021/12/05 00:31:19;;;;;;;5.80;1.97;;;6.40;90.40;;;6.84;62.22;97450.78;4877737;28;114361;-87
2021/12/05 00:56:00;;;;;;;4.17;1.53;;;7.50;91.00;;;6.92;62.71;97463.72;4873706;28;113735;-87
2021/12/05 01:01:32;;;;;;;3.37;1.70;;;5.20;90.00;;;6.84;62.36;97464.50;4877291;28;124477;-88
2021/12/05 01:20:27;;;;;;;4.70;1.33;;;6.40;90.60;;;6.90;62.16;97462.41;4876781;28;124955;-89
2021/12/05 01:23:25;;;;;;;3.40;1.57;;;7.00;90.80;;;6.93;62.75;97454.34;4864320;28;123395;-87
2021/12/05 01:25:56;;;;;;;4.40;1.37;;;4.90;90.10;;;6.95;62.12;97462.25;4896018;28;114056;-86
2021/12/05 01:28:55;;;;;;;4.80;1.43;;;5.80;90.40;;;6.94;62.12;97453.22;4881862;28;112708;-88
2021/12/05 01:37:36;;;;;;;3.90;1.70;;;6.40;90.50;;;7.00;61.91;97460.16;4877523;28;114513;-87
2021/12/05 01:54:25;;;;;;;2.57;1.60;;;8.10;91.10;;;7.07;61.98;97482.47;4897322;28;124042;-87
2021/12/05 02:02:44;;;;;;;2.80;1.37;;;6.40;90.40;;;7.01;61.81;97478.28;4897209;28;113262;-87
2021/12/05 02:09:09;;;;;;;2.83;1.50;;;6.40;90.40;;;7.06;61.93;97471.78;4884349;28;123841;-87
2021/12/05 02:41:28;;;;;;;4.33;1.50;;;6.50;90.10;;;6.92;61.62;97441.75;4901014;28;113912;-87
2021/12/05 02:44:05;;;;;;;1.90;1.30;;;6.10;89.70;;;6.91;61.15;97433.84;4897893;28;122697;-87
2021/12/05 02:46:32;;;;;;;2.90;1.30;;;6.40;90.00;;;6.92;61.17;97447.22;4869090;28;122308;-89
2021/12/05 02:49:04;;;;;;;1.27;1.17;;;7.80;90.60;;;6.94;61.10;97449.66;4850994;28;112964;-87
2021/12/05 02:51:33;;;;;;;2.80;1.30;;;5.50;89.40;;;6.91;61.05;97451.13;4866411;28;112462;-87
2021/12/05 02:56:30;;;;;;;1.97;1.63;;;6.30;89.90;;;6.85;61.25;97433.16;4868749;28;123385;-87
2021/12/05 02:59:06;;;;;;;4.93;1.50;;;6.40;89.90;;;6.85;60.46;97433.16;4879806;28;112965;-86
2021/12/05 03:01:42;;;;;;;1.63;1.20;;;7.40;90.30;;;6.85;60.96;97430.41;4883357;28;112502;-87
2021/12/05 03:04:11;;;;;;;1.83;1.20;;;7.10;90.20;;;6.83;60.85;97430.75;4866195;28;122670;-87
2021/12/05 03:06:59;;;;;;;2.10;1.20;;;6.30;89.80;;;6.85;61.01;97431.25;4895970;28;122773;-87
2021/12/05 03:09:25;;;;;;;2.60;1.50;;;7.70;90.40;;;6.84;60.75;97437.84;4883360;28;114705;-87
2021/12/05 03:11:53;;;;;;;3.67;1.57;;;7.80;90.90;;;6.89;61.17;97430.59;4898352;28;113339;-87
2021/12/05 03:14:21;;;;;;;6.70;1.60;;;6.40;90.00;;;6.89;61.33;97425.91;4866817;28;122962;-87
2021/12/05 03:17:07;;;;;;;2.07;1.40;;;6.40;90.00;;;6.91;61.15;97426.41;4881296;28;122237;-88
2021/12/05 03:20:29;;;;;;;1.33;1.17;;;6.30;89.70;;;6.92;60.69;97428.00;4867227;28;113796;-87
2021/12/05 03:23:35;;;;;;;1.30;1.20;;;6.30;90.00;;;6.92;60.73;97424.47;4882402;28;113555;-88
2021/12/05 03:26:40;;;;;;;4.70;1.30;;;5.60;89.40;;;6.93;60.85;97418.66;4854206;28;122383;-87
2021/12/05 03:29:12;;;;;;;3.30;1.57;;;5.50;89.30;;;6.91;61.03;97423.66;4879049;28;122257;-87
2021/12/05 03:32:18;;;;;;;3.77;1.17;;;6.00;89.60;;;6.94;60.61;97423.00;4879061;28;112882;-87
2021/12/05 03:34:45;;;;;;;2.23;1.47;;;6.30;89.90;;;6.92;61.02;97422.53;4865899;28;112313;-87
2021/12/05 03:37:12;;;;;;;2.77;1.70;;;6.40;89.90;;;6.96;60.95;97426.25;4865250;28;123424;-87
2021/12/05 03:39:41;;;;;;;1.23;1.13;;;8.00;90.60;;;6.99;60.63;97422.06;4881566;28;122164;-86
2021/12/05 03:42:09;;;;;;;2.70;1.30;;;6.40;89.90;;;6.97;60.87;97416.88;4862779;28;112738;-87
2021/12/05 03:44:38;;;;;;;3.60;1.73;;;6.40;89.90;;;6.99;61.04;97420.13;4876819;28;112661;-88
2021/12/05 03:47:42;;;;;;;2.77;1.40;;;7.90;90.50;;;6.98;60.93;97415.72;4878779;28;124097;-87
2021/12/05 03:50:11;;;;;;;3.47;1.30;;;6.40;89.70;;;6.94;60.41;97400.25;4875038;28;123382;-87
2021/12/05 03:53:30;;;;;;;4.80;1.63;;;6.40;89.70;;;6.91;60.44;97395.41;4868855;28;113429;-86
2021/12/05 03:56:21;;;;;;;2.67;1.23;;;5.10;88.40;;;6.83;61.02;97397.81;4840906;29;112262;-88
2021/12/05 03:59:10;;;;;;;1.17;1.00;;;6.30;89.40;;;6.81;60.91;97393.78;4844535;29;123417;-87
2021/12/05 04:01:38;;;;;;;3.20;1.43;;;6.30;89.50;;;6.83;61.05;97399.75;4846358;28;122508;-87
2021/12/05 04:04:09;;;;;;;1.87;1.10;;;6.30;89.60;;;6.84;60.95;97402.16;4845992;28;113966;-86
2021/12/05 04:06:38;;;;;;;3.30;1.40;;;6.40;89.60;;;6.87;60.78;97408.94;4848537;28;114552;-87
2021/12/05 04:12:47;;;;;;;3.20;1.27;;;7.40;90.20;;;6.89;60.78;97408.66;4861244;28;123693;-87
2021/12/05 04:15:14;;;;;;;1.47;1.03;;;6.40;89.60;;;6.91;60.66;97412.69;4874768;28;113209;-87
2021/12/05 04:18:00;;;;;;;3.23;1.43;;;6.30;89.40;;;6.93;60.00;97409.59;4862321;28;112515;-87
2021/12/05 04:24:10;;;;;;;3.97;1.53;;;6.50;89.40;;;6.85;60.61;97417.53;4871344;28;124307;-87
2021/12/05 04:27:33;;;;;;;4.00;1.43;;;5.20;88.20;;;6.84;59.94;97424.13;4869407;28;113928;-87
2021/12/05 04:33:42;;;;;;;4.33;1.53;;;6.30;89.00;;;6.71;60.50;97419.59;4864220;28;125083;-87
2021/12/05 04:36:08;;;;;;;2.80;1.47;;;7.30;90.00;;;6.71;60.65;97424.28;4843281;29;122188;-86
2021/12/05 04:39:32;;;;;;;2.63;1.33;;;6.10;88.90;;;6.72;60.43;97428.66;4860292;28;112747;-87
2021/12/05 04:42:40;;;;;;;3.27;1.40;;;4.80;87.90;;;6.64;61.00;97424.78;4878384;28;113384;-87
2021/12/05 04:45:15;;;;;;;3.70;1.43;;;6.10;89.10;;;6.59;60.55;97433.97;4862581;28;123079;-87
2021/12/05 04:47:42;;;;;;;3.30;1.60;;;7.30;90.10;;;6.57;61.11;97429.91;4864065;28;122219;-87
2021/12/05 04:50:10;;;;;;;3.40;1.50;;;6.20;89.30;;;6.57;61.39;97430.72;4878976;28;112801;-87
2021/12/05 04:53:33;;;;;;;1.50;1.33;;;6.10;89.40;;;6.61;60.95;97425.41;4847207;28;113422;-87
2021/12/05 04:56:01;;;;;;;3.37;1.40;;;6.20;89.50;;;6.52;61.22;97433.59;4866614;28;123543;-88
2021/12/05 04:58:28;;;;;;;3.10;1.17;;;7.40;90.30;;;6.50;61.02;97430.41;4895822;28;122695;-87
2021/12/05 05:00:57;;;;;;;7.00;1.70;;;7.40;90.20;;;6.48;60.59;97438.13;4876895;28;115025;-88
2021/12/05 05:03:26;;;;;;;3.30;1.40;;;6.10;89.40;;;6.45;60.95;97433.28;4890951;28;113690;-87
2021/12/05 05:06:06;;;;;;;2.03;1.50;;;6.00;89.40;;;6.44;60.76;97431.66;4878319;28;123586;-87
2021/12/05 05:08:55;;;;;;;3.23;1.27;;;6.80;90.10;;;6.49;61.13;97427.97;4863094;28;123130;-87
2021/12/05 05:11:26;;;;;;;4.07;1.40;;;6.00;89.60;;;6.47;60.78;97431.00;4855572;28;112772;-87
2021/12/05 05:14:14;;;;;;;1.43;1.20;;;6.00;89.50;;;6.50;60.95;97424.91;4865336;28;113180;-87
2021/12/05 05:16:44;;;;;;;2.40;1.40;;;6.00;89.70;;;6.49;61.21;97422.47;4877669;28;122781;-87
2021/12/05 05:54:19;;;;;;;3.17;1.43;;;5.90;90.20;;;6.26;61.91;97421.75;4893212;28;123643;-88
2021/12/05 05:56:53;;;;;;;2.17;1.40;;;4.40;89.30;;;6.26;61.57;97424.50;4893840;28;113907;-87
2021/12/05 06:00:10;;;;;;;3.03;1.63;;;6.50;90.50;;;6.26;62.07;97419.84;4893561;28;113654;-88
2021/12/05 06:09:06;;;;;;;3.17;1.47;;;5.70;90.20;;;6.14;62.13;97439.63;4901493;28;112784;-87
2021/12/05 06:11:53;;;;;;;1.63;1.30;;;5.60;90.20;;;6.13;61.35;97437.22;4885611;28;114117;-87
2021/12/05 06:21:44;;;;;;;3.70;1.23;;;5.60;90.10;;;6.03;62.01;97438.31;4902075;28;114010;-87
2021/12/05 06:24:11;;;;;;;2.67;0.90;;;5.60;90.20;;;6.04;62.18;97445.38;4899831;28;112406;-87
2021/12/05 06:37:14;;;;;;;2.30;1.40;;;5.50;90.20;;;5.79;62.30;97433.16;4881257;28;114112;-87
2021/12/05 06:40:00;;;;;;;2.33;1.30;;;5.60;90.20;;;5.79;62.69;97432.34;4865880;28;123318;-88
2021/12/05 06:45:55;;;;;;;2.23;1.20;;;5.40;90.30;;;5.82;62.45;97437.22;4865961;28;123538;-88
2021/12/05 06:46:29;;;;;;;3.43;1.23;;;3.90;89.40;;;5.80;62.19;97431.22;4888469;28;113663;-88
2021/12/05 06:48:47;;;;;;;3.47;1.70;;;5.70;90.40;;;5.83;62.78;97433.34;4864777;28;113113;-88
2021/12/05 06:51:21;;;;;;;2.13;1.27;;;5.40;90.40;;;5.89;62.30;97426.59;4862109;28;122385;-88
2021/12/05 06:54:25;;;;;;;1.73;1.20;;;7.10;91.10;;;5.97;62.61;97439.56;4863755;28;122407;-88
2021/12/05 06:56:52;;;;;;;1.97;1.20;;;5.40;90.40;;;5.96;62.56;97436.03;4865786;28;113857;-87
2021/12/05 06:59:20;;;;;;;3.93;1.70;;;6.50;90.80;;;5.96;62.12;97433.28;4863389;28;113556;-87
2021/12/05 07:01:47;;;;;;;2.70;1.30;;;4.10;89.70;;;6.00;61.95;97449.91;4859231;28;122464;-88
2021/12/05 07:05:15;;;;;;;3.40;1.43;;;6.70;90.90;;;6.03;62.11;97442.97;4854754;28;122859;-87
2021/12/05 07:07:45;;;;;;;1.73;1.60;;;6.40;90.70;;;5.98;62.39;97457.63;4870703;28;112624;-87
2021/12/05 07:10:16;;;;;;;2.57;2.10;;;5.40;90.40;;;5.97;62.26;97447.81;4895522;28;113517;-87
2021/12/05 07:16:03;;;;;;;2.47;1.50;;;5.40;90.30;;;6.00;62.00;97460.88;4882954;28;124380;-88
2021/12/05 07:21:31;;;;;;;1.73;1.50;;;5.20;90.20;;;6.07;62.57;97461.25;4898545;28;112752;-88
2021/12/05 07:41:54;;;;;;;1.40;1.30;;;4.70;90.00;;;5.98;62.08;97452.94;4865340;28;114817;-89
2021/12/05 07:44:39;;;;;;;2.33;1.30;;;5.50;90.40;;;5.98;62.49;97460.38;4847422;28;113585;-87
2021/12/05 07:47:30;;;;;;;1.80;1.30;;;5.00;90.10;;;5.96;61.85;97470.84;4845996;28;122934;-88
2021/12/05 07:50:04;;;;;;;1.90;1.40;;;5.40;90.30;;;5.95;61.56;97458.25;4846890;28;122050;-87
2021/12/05 07:53:17;;;;;;;2.20;1.50;;;6.30;90.70;;;6.01;62.60;97465.22;4863446;28;114688;-87
2021/12/05 07:56:11;;;;;;;1.63;1.10;;;5.50;90.40;;;5.98;61.96;97468.59;4863272;28;114521;-88
2021/12/05 07:59:44;;;;;;;1.67;1.30;;;5.40;90.30;;;5.96;62.71;97471.66;4858856;28;122628;-88
2021/12/05 08:15:43;;;;;;;1.93;1.30;;;5.40;90.30;;;5.89;62.46;97470.47;4901203;28;124353;-88
2021/12/05 08:18:12;;;;;;;2.27;1.50;;;5.40;90.40;;;5.92;62.21;97478.06;4859877;28;112662;-88
2021/12/05 08:20:43;;;;;;;3.23;1.30;;;6.40;90.70;;;5.98;62.60;97480.38;4861473;28;113113;-89
2021/12/05 08:23:12;;;;;;;3.43;1.30;;;6.90;91.00;;;6.04;62.86;97483.78;4879946;28;123571;-87
2021/12/05 08:25:43;;;;;;;4.10;1.40;;;5.50;90.40;;;6.10;62.25;97477.06;4882476;28;122069;-87
2021/12/05 08:31:09;;;;;;;1.60;1.10;;;5.60;90.40;;;6.21;61.84;97472.09;4864951;28;114489;-88
2021/12/05 08:33:58;;;;;;;5.93;1.80;;;7.00;90.90;;;6.24;61.49;97467.91;4880098;28;122825;-88
2021/12/05 08:39:33;;;;;;;4.30;1.47;;;5.60;90.30;;;6.31;61.51;97460.00;4881349;28;114220;-88
2021/12/05 08:42:24;;;;;;;2.30;1.30;;;5.60;90.30;;;6.33;61.77;97457.78;4866336;28;113822;-87
2021/12/05 09:19:58;;;;;;;4.10;1.20;;;5.90;90.00;;;6.61;61.15;97470.13;4885741;28;123768;-87
2021/12/05 09:29:03;;;;;;;2.30;1.27;;;6.10;89.30;;;6.70;60.32;97494.03;4860892;28;114371;-88
2021/12/05 09:51:36;;;;;;;1.73;1.20;;;6.90;90.10;;;7.24;60.61;97487.16;4809936;29;115975;-88
2021/12/05 10:02:39;;;;;;;1.73;1.30;;;6.90;89.60;;;7.60;59.35;97474.19;4801604;29;113717;-87
2021/12/05 10:16:59;;;;;;;1.30;1.17;;;7.10;88.60;;;7.99;58.80;97450.34;4864693;28;123765;-87
2021/12/05 10:26:29;;;;;;;1.80;1.30;;;6.00;87.10;;;8.30;58.15;97450.88;4861253;29;114121;-88
2021/12/05 10:38:51;;;;;;;1.63;1.00;;;9.20;87.50;;;8.58;56.54;97444.94;4863813;28;113581;-87
2021/12/05 10:41:46;;;;;;;1.90;1.20;;;8.00;85.90;;;8.62;55.80;97445.88;4870428;28;122741;-88
2021/12/05 10:44:14;;;;;;;4.90;1.33;;;8.00;85.80;;;8.66;56.33;97441.31;4858042;28;124198;-86
2021/12/05 10:47:37;;;;;;;3.43;1.40;;;9.50;86.50;;;8.73;55.69;97436.09;4825773;29;113647;-88
2021/12/05 10:50:48;;;;;;;1.93;1.30;;;7.30;84.20;;;8.89;55.84;97430.78;4842521;29;114132;-88
2021/12/05 10:53:53;;;;;;;2.20;1.10;;;8.20;85.20;;;9.07;54.97;97435.03;4849660;28;123141;-87
2021/12/05 10:56:27;;;;;;;1.30;1.00;;;8.40;84.50;;;9.20;54.92;97424.88;4857175;28;122204;-87
2021/12/05 10:59:31;;;;;;;2.90;1.20;;;9.40;85.30;;;9.36;54.98;97414.03;4847784;29;112584;-87
2021/12/05 11:02:03;;;;;;;3.03;1.10;;;8.60;84.50;;;9.54;54.71;97419.38;4846486;28;112737;-88
2021/12/05 11:04:44;;;;;;;2.27;1.23;;;8.80;84.50;;;9.71;53.82;97410.94;4853518;28;122866;-88
2021/12/05 11:07:35;;;;;;;1.20;1.10;;;9.20;84.20;;;9.90;53.58;97413.16;4848165;28;122956;-88
2021/12/05 11:10:43;;;;;;;1.73;1.30;;;7.90;82.60;;;10.06;53.47;97405.81;4879336;28;112390;-87
2021/12/05 11:13:50;;;;;;;2.30;1.27;;;9.20;83.50;;;10.24;53.50;97402.88;4864252;28;113351;-87
2021/12/05 11:17:14;;;;;;;15.80;9.70;;;9.40;83.40;;;10.32;53.10;97399.22;4863088;28;124229;-88
2021/12/05 11:20:09;;;;;;;8.83;5.70;;;9.60;82.80;;;10.30;52.67;97396.78;4867385;28;124242;-86
2021/12/05 11:22:50;;;;;;;4.83;3.40;;;9.70;82.40;;;10.30;52.41;97401.50;4862396;28;112992;-88
2021/12/05 11:25:28;;;;;;;3.20;1.73;;;9.70;81.90;;;10.32;52.20;97390.94;4847358;28;112833;-88
2021/12/05 11:31:39;;;;;;;2.03;1.30;;;9.70;79.00;;;10.34;50.76;97396.88;4860989;29;124455;-87
2021/12/05 11:38:45;;;;;;;1.40;1.30;;;9.90;78.70;;;10.26;50.24;97412.41;4861692;29;114898;-88
2021/12/05 11:41:30;;;;;;;4.43;1.23;;;9.20;76.90;;;10.24;49.94;97400.09;4855537;28;122608;-87
2021/12/05 11:44:36;;;;;;;2.03;1.20;;;9.90;77.20;;;10.27;49.51;97402.16;4864914;28;122215;-88
2021/12/05 11:47:23;;;;;;;1.57;1.00;;;9.80;76.90;;;10.18;50.24;97399.50;4843884;28;115017;-88
2021/12/05 11:50:46;;;;;;;2.03;1.30;;;9.80;76.90;;;10.15;49.78;97400.19;4845110;29;114688;-89
2021/12/05 11:54:09;;;;;;;1.50;1.07;;;9.70;76.70;;;10.14;50.25;97393.06;4861411;28;122361;-89
2021/12/05 11:57:17;;;;;;;1.47;1.37;;;9.80;77.00;;;10.10;50.37;97398.47;4862326;28;122443;-89
2021/12/05 12:00:23;;;;;;;2.87;1.50;;;9.80;77.30;;;10.12;50.20;97406.41;4846675;28;113808;-89
2021/12/05 12:02:52;;;;;;;2.23;1.50;;;9.80;77.30;;;10.07;49.76;97396.38;4857651;28;114755;-89
2021/12/05 12:05:35;;;;;;;1.33;1.13;;;9.70;76.50;;;9.97;50.27;97394.09;4852399;28;123265;-89
2021/12/05 12:08:12;;;;;;;2.80;1.20;;;9.40;76.40;;;9.93;50.48;97409.72;4865550;28;122510;-88
2021/12/05 12:11:37;;;;;;;1.73;1.20;;;9.70;77.00;;;9.84;50.21;97403.50;4847449;28;114273;-88
2021/12/05 12:14:05;;;;;;;2.00;1.20;;;9.60;76.90;;;9.77;50.79;97403.25;4849791;28;113396;-89
2021/12/05 12:16:33;;;;;;;1.40;1.30;;;9.50;77.00;;;9.80;50.87;97405.31;4856143;28;124612;-88
2021/12/05 12:19:05;;;;;;;3.03;1.50;;;9.50;77.50;;;9.88;50.78;97396.13;4839539;28;122847;-89
2021/12/05 12:21:39;;;;;;;1.50;1.40;;;9.50;78.40;;;10.05;50.94;97387.66;4876440;28;113446;-88
2021/12/05 12:24:07;;;;;;;3.23;1.30;;;10.20;77.70;;;10.23;50.76;97395.72;4867583;28;113884;-89
2021/12/05 12:26:33;;;;;;;2.90;1.27;;;10.30;78.00;;;10.38;50.92;97397.81;4842675;29;123742;-90
2021/12/05 12:29:02;;;;;;;3.13;1.47;;;9.80;78.40;;;10.55;50.54;97392.03;4872784;28;122886;-90
2021/12/05 12:31:35;;;;;;;1.53;1.20;;;10.00;77.50;;;10.74;49.90;97393.41;4844879;28;112820;-89
2021/12/05 12:34:16;;;;;;;2.23;1.07;;;10.10;77.20;;;10.92;49.81;97394.75;4858928;29;112418;-89
2021/12/05 12:36:49;;;;;;;1.47;1.27;;;10.20;77.10;;;11.02;49.85;97388.75;4859659;29;123725;-89
2021/12/05 12:39:16;;;;;;;1.47;1.07;;;10.30;76.80;;;11.16;49.69;97406.91;4843441;29;122948;-89
2021/12/05 12:42:25;;;;;;;3.23;1.30;;;12.10;78.00;;;11.28;49.40;97395.78;4861928;28;114422;-89
2021/12/05 12:45:17;;;;;;;1.30;1.10;;;10.70;76.20;;;11.31;48.61;97400.63;4844982;28;115023;-90
2021/12/05 12:47:56;;;;;;;1.10;1.00;;;10.80;75.40;;;11.31;48.45;97395.09;4860509;28;123989;-90
2021/12/05 12:51:19;;;;;;;1.80;1.10;;;10.70;74.80;;;11.28;48.25;97395.78;4858678;28;123303;-88
2021/12/05 12:53:56;;;;;;;1.80;1.20;;;10.90;74.30;;;11.27;48.48;97397.75;4875588;28;115454;-89
2021/12/05 13:00:16;;;;;;;2.07;1.10;;;10.90;73.50;;;11.23;47.61;97393.25;4869689;28;125413;-89
2021/12/05 13:19:22;;;;;;;1.00;0.87;;;11.00;72.30;;;11.28;46.81;97390.25;4878518;28;114775;-89
2021/12/05 13:21:52;;;;;;;0.80;0.80;;;11.00;71.50;;;11.32;46.06;97398.66;4860508;28;113403;-89
2021/12/05 13:24:31;;;;;;;1.47;1.00;;;10.60;70.60;;;11.35;46.57;97396.00;4858315;28;123581;-89
2021/12/05 13:27:05;;;;;;;1.47;1.23;;;11.00;71.20;;;11.43;45.78;97405.28;4844629;29;124198;-89
2021/12/05 13:29:49;;;;;;;1.00;0.90;;;11.00;70.30;;;11.41;45.56;97397.34;4857632;28;113022;-90
2021/12/05 13:32:29;;;;;;;1.13;0.90;;;11.10;70.00;;;11.41;45.76;97394.56;4843831;29;114171;-89
2021/12/05 13:35:01;;;;;;;1.03;0.93;;;11.10;70.40;;;11.43;45.92;97397.78;4841637;29;123561;-90
2021/12/05 13:37:48;;;;;;;1.20;0.97;;;11.10;70.30;;;11.50;46.01;97399.97;4860712;28;123905;-89
2021/12/05 13:40:41;;;;;;;1.67;1.00;;;11.20;70.50;;;11.54;46.29;97411.13;4857274;29;114650;-89
2021/12/05 13:43:09;;;;;;;2.37;1.00;;;11.20;70.50;;;11.58;46.52;97404.53;4853969;29;114424;-90
2021/12/05 13:45:43;;;;;;;1.40;1.10;;;11.30;70.70;;;11.61;46.20;97408.56;4847326;28;122635;-88
2021/12/05 13:48:20;;;;;;;1.53;1.03;;;12.70;71.80;;;11.64;46.15;97407.84;4870415;28;123370;-89
2021/12/05 13:51:22;;;;;;;1.07;0.90;;;11.40;70.60;;;11.66;45.93;97425.72;4825115;29;113343;-89
2021/12/05 13:53:52;;;;;;;0.80;0.80;;;11.40;70.30;;;11.61;45.89;97422.41;4856759;29;114279;-89
2021/12/05 13:56:25;;;;;;;1.47;0.90;;;11.40;69.40;;;11.49;45.48;97421.28;4832074;28;123537;-88
2021/12/05 13:59:30;;;;;;;1.00;0.90;;;11.40;68.60;;;11.33;45.79;97417.66;4844750;28;123811;-88
2021/12/05 14:02:17;;;;;;;1.47;1.00;;;10.00;67.20;;;11.24;45.46;97428.88;4859321;28;113706;-88
2021/12/05 14:05:29;;;;;;;1.93;1.10;;;11.30;68.30;;;11.05;45.08;97429.50;4844178;28;113518;-88
2021/12/05 14:07:56;;;;;;;2.03;1.00;;;11.20;67.50;;;10.91;45.70;97431.00;4833644;28;122910;-87
2021/12/05 14:10:23;;;;;;;1.30;0.97;;;11.00;67.60;;;10.82;45.51;97440.22;4842882;28;124151;-87
2021/12/05 14:12:50;;;;;;;2.83;1.00;;;10.90;67.80;;;10.74;45.83;97437.59;4857859;28;113152;-87
2021/12/05 14:16:15;;;;;;;1.47;1.00;;;10.80;67.90;;;10.65;45.96;97434.16;4873428;28;113485;-87
2021/12/05 14:18:42;;;;;;;1.20;1.10;;;10.60;67.90;;;10.56;45.71;97439.81;4858243;28;122778;-88
2021/12/05 14:21:28;;;;;;;2.03;1.30;;;10.50;68.10;;;10.52;46.19;97441.66;4854668;28;123778;-87
2021/12/05 14:24:00;;;;;;;1.20;1.07;;;10.50;68.70;;;10.50;46.22;97443.94;4858043;28;113885;-88
2021/12/05 14:26:32;;;;;;;1.50;1.13;;;10.90;69.40;;;10.51;46.57;97456.63;4855240;29;113561;-89
2021/12/05 14:29:24;;;;;;;1.03;0.93;;;10.40;69.20;;;10.52;46.64;97455.47;4855763;29;123571;-87
2021/12/05 14:32:00;;;;;;;1.10;1.00;;;10.40;69.30;;;10.50;46.86;97450.25;4856345;28;123353;-88
2021/12/05 14:34:28;;;;;;;1.37;1.10;;;10.30;69.40;;;10.49;46.74;97448.66;4842013;29;113512;-88
2021/12/05 14:37:06;;;;;;;2.20;1.00;;;10.30;69.50;;;10.51;46.53;97446.38;4843189;29;114248;-89
2021/12/05 14:39:43;;;;;;;2.47;1.60;;;10.30;69.50;;;10.52;46.71;97449.94;4858248;28;122456;-88
2021/12/05 14:42:16;;;;;;;4.23;2.83;;;10.30;69.90;;;10.54;47.15;97456.72;4857069;28;123900;-88
2021/12/05 14:44:49;;;;;;;5.73;2.90;;;11.90;71.50;;;10.53;46.94;97455.13;4856996;28;114095;-87
2021/12/05 14:47:30;;;;;;;3.00;1.90;;;10.30;70.10;;;10.54;46.93;97464.22;4855638;28;113624;-87
2021/12/05 14:50:07;;;;;;;1.90;1.67;;;10.40;70.10;;;10.51;46.92;97465.69;4870965;28;123736;-87
2021/12/05 14:52:37;;;;;;;1.97;1.57;;;11.20;71.00;;;10.46;47.15;97465.13;4867506;28;123137;-87
2021/12/05 14:55:09;;;;;;;1.80;1.60;;;10.20;70.70;;;10.35;47.82;97473.06;4857370;28;112836;-87
2021/12/05 14:57:52;;;;;;;2.80;1.43;;;10.10;71.20;;;10.30;48.08;97474.06;4856713;28;113989;-86
2021/12/05 15:00:28;;;;;;;3.00;1.30;;;10.00;71.50;;;10.29;48.54;97482.69;4868297;28;123801;-86
2021/12/05 15:03:29;;;;;;;1.33;1.17;;;10.00;72.90;;;10.24;48.89;97486.47;4849485;28;122955;-87
2021/12/05 15:06:03;;;;;;;2.60;1.60;;;9.90;73.70;;;10.22;49.24;97487.97;4811442;28;113800;-87
2021/12/05 15:08:32;;;;;;;2.83;1.63;;;9.90;73.90;;;10.18;49.51;97491.41;4876579;28;113588;-87
2021/12/05 15:11:04;;;;;;;1.60;1.30;;;9.90;74.10;;;10.18;49.55;97488.66;4859340;28;124235;-87
2021/12/05 15:13:31;;;;;;;2.90;1.43;;;10.90;74.20;;;10.17;50.00;97491.72;4855016;28;123931;-87
2021/12/05 15:15:59;;;;;;;1.93;1.53;;;10.00;73.60;;;10.14;49.58;97498.75;4857247;29;113783;-87
2021/12/05 15:18:32;;;;;;;2.20;1.37;;;9.80;74.60;;;10.12;49.87;97498.28;4852823;29;113015;-87
2021/12/05 15:21:00;;;;;;;1.83;1.50;;;10.20;74.20;;;10.12;49.80;97506.56;4851578;28;123586;-87
2021/12/05 15:23:36;;;;;;;2.43;1.23;;;9.80;75.00;;;10.09;50.13;97507.25;4864450;28;123973;-87
2021/12/05 15:26:05;;;;;;;2.60;1.67;;;9.70;75.20;;;10.04;50.02;97509.41;4874605;28;115128;-87
2021/12/05 15:28:35;;;;;;;1.50;1.40;;;9.70;75.40;;;10.00;50.03;97512.06;4878846;28;114194;-87
2021/12/05 15:31:05;;;;;;;1.67;1.40;;;9.60;75.40;;;9.98;50.45;97525.38;4889060;28;125860;-87
2021/12/05 15:33:34;;;;;;;1.57;1.47;;;9.60;75.60;;;9.95;50.11;97524.09;4859281;28;122800;-87
2021/12/05 15:36:01;;;;;;;2.13;1.67;;;9.60;75.80;;;9.92;50.56;97529.50;4854295;28;114270;-87
2021/12/05 15:38:30;;;;;;;1.40;1.30;;;9.60;76.00;;;9.90;50.54;97531.78;4862865;28;114059;-87
2021/12/05 15:41:05;;;;;;;2.47;1.60;;;9.50;76.00;;;9.88;50.51;97531.31;4875614;28;122496;-87
2021/12/05 15:43:36;;;;;;;3.40;2.13;;;9.50;76.20;;;9.83;50.83;97532.34;4865360;28;124788;-88
2021/12/05 15:46:07;;;;;;;3.07;1.57;;;9.50;76.30;;;9.79;51.08;97539.69;4856460;28;113739;-86
2021/12/05 15:48:37;;;;;;;3.33;1.40;;;9.50;76.40;;;9.78;51.25;97543.59;4855950;29;113615;-87
2021/12/05 15:51:11;;;;;;;2.93;1.63;;;9.40;76.50;;;9.74;51.29;97535.16;4839953;28;124333;-87
2021/12/05 15:53:39;;;;;;;2.40;1.77;;;9.40;76.60;;;9.69;51.03;97535.38;4863803;28;123571;-87
2021/12/05 15:56:31;;;;;;;2.87;1.60;;;9.60;76.90;;;9.67;51.30;97543.19;4850135;29;114104;-87
2021/12/05 15:59:07;;;;;;;2.93;1.80;;;9.30;76.80;;;9.61;51.42;97541.75;4844117;28;113795;-88
2021/12/05 16:01:37;;;;;;;2.40;1.40;;;10.10;76.70;;;9.57;51.64;97548.31;4852856;28;123637;-87
2021/12/05 16:04:18;;;;;;;2.17;1.67;;;9.30;77.00;;;9.56;51.66;97553.00;4853691;28;123771;-85
2021/12/05 16:06:45;;;;;;;2.10;1.60;;;9.20;77.20;;;9.52;51.75;97557.59;4872722;28;114283;-85
2021/12/05 16:09:49;;;;;;;2.90;1.67;;;9.10;77.20;;;9.48;51.83;97562.97;4870372;28;113709;-89
2021/12/05 16:12:20;;;;;;;1.60;1.10;;;9.10;77.60;;;9.43;51.99;97567.84;4869113;28;123757;-87
2021/12/05 16:14:52;;;;;;;2.30;1.67;;;9.10;77.70;;;9.39;52.20;97562.22;4867832;28;123654;-87
2021/12/05 16:17:25;;;;;;;1.87;1.50;;;9.10;77.90;;;9.37;51.95;97572.75;4866789;28;114792;-88
2021/12/05 16:20:24;;;;;;;3.63;2.37;;;9.00;78.00;;;9.31;52.39;97565.03;4872386;28;114720;-87
2021/12/05 16:23:28;;;;;;;3.30;1.73;;;9.00;78.20;;;9.28;52.77;97572.03;4849101;28;123842;-86
2021/12/05 16:25:54;;;;;;;2.07;1.40;;;8.90;78.80;;;9.20;53.11;97581.16;4844763;28;123441;-88
2021/12/05 16:28:37;;;;;;;2.83;1.70;;;8.80;78.80;;;9.18;52.88;97570.44;4873593;28;113552;-86
2021/12/05 16:31:23;;;;;;;4.07;1.90;;;8.80;79.00;;;9.16;52.79;97574.69;4850662;28;113154;-87
2021/12/05 16:34:07;;;;;;;2.10;1.67;;;8.70;79.00;;;9.11;53.07;97570.19;4842380;28;123771;-87
2021/12/05 16:36:37;;;;;;;3.33;1.90;;;8.70;79.00;;;9.09;52.98;97574.41;4848557;29;124701;-87
2021/12/05 16:39:19;;;;;;;2.80;1.77;;;8.70;79.00;;;9.07;53.01;97567.28;4851001;28;112510;-86
2021/12/05 16:41:53;;;;;;;2.80;1.90;;;8.70;79.00;;;9.03;53.30;97571.03;4872336;28;114374;-87
2021/12/05 16:44:28;;;;;;;2.00;1.80;;;8.60;79.00;;;9.02;53.26;97570.22;4842678;28;123537;-88
2021/12/05 16:47:02;;;;;;;3.37;1.90;;;8.60;79.10;;;9.00;53.51;97577.19;4850354;28;123851;-87
2021/12/05 16:49:36;;;;;;;1.73;1.63;;;8.60;79.20;;;8.99;53.22;97581.09;4863303;28;114298;-87
2021/12/05 16:52:22;;;;;;;3.50;1.93;;;8.60;79.30;;;8.98;53.17;97573.97;4867415;28;113366;-87
2021/12/05 16:55:20;;;;;;;5.50;2.63;;;8.60;79.30;;;8.91;53.37;97580.00;4856879;28;122282;-88
2021/12/05 16:57:57;;;;;;;4.37;2.40;;;8.50;79.40;;;8.84;53.30;97590.75;4870643;28;124020;-88
2021/12/05 17:00:50;;;;;;;2.90;1.73;;;8.40;79.50;;;8.77;53.29;97594.00;4857368;28;113858;-84
2021/12/05 17:03:24;;;;;;;1.93;1.73;;;8.40;79.50;;;8.70;53.72;97590.94;4852391;28;113065;-87
2021/12/05 17:06:10;;;;;;;2.43;1.83;;;8.30;79.40;;;8.67;53.48;97599.06;4857988;28;123241;-89
2021/12/05 17:08:44;;;;;;;2.57;1.80;;;8.30;79.40;;;8.59;53.90;97595.19;4857006;28;121831;-88
2021/12/05 17:11:18;;;;;;;2.70;2.10;;;8.20;79.60;;;8.59;53.84;97600.69;4834814;29;114816;-87
2021/12/05 17:13:54;;;;;;;2.17;1.60;;;8.20;79.80;;;8.55;54.14;97599.75;4849568;28;114171;-87
2021/12/05 17:16:27;;;;;;;2.07;1.90;;;9.30;80.90;;;8.50;53.96;97599.94;4837665;28;122616;-85
2021/12/05 17:19:13;;;;;;;2.43;1.93;;;8.10;80.00;;;8.49;54.05;97610.13;4841720;28;122453;-87
2021/12/05 17:21:47;;;;;;;3.20;2.07;;;8.10;80.00;;;8.47;53.93;97606.91;4871439;28;112707;-87
2021/12/05 17:24:28;;;;;;;2.03;1.80;;;8.10;80.20;;;8.47;54.24;97614.34;4840027;28;113588;-84
2021/12/05 17:27:04;;;;;;;2.10;1.90;;;8.10;80.30;;;8.44;54.46;97613.06;4842250;28;122697;-86
2021/12/05 17:29:41;;;;;;;3.07;2.13;;;8.10;80.40;;;8.44;54.31;97615.00;4855006;28;123985;-87